Time;durP1;ratioP1;P1;durP2;ratioP2;P2;SDS_P1;SDS_P2;PMS_P1;PMS_P2;Temp;Humidity;BMP_temperature;BMP_pressure;BME280_temperature;BME280_humidity;BME280_pressure;Samples;Min_cycle;Max_cycle;Signal;HPM_P1;HPM_P2
2021/06/03 00:01:20;;;;;;;6.05;5.55;;;16.00;99.90;;;;;;5072513;28;20215;-61
2021/06/03 00:03:49;;;;;;;6.68;6.07;;;15.90;99.90;;;;;;5072381;28;20603;-60
2021/06/03 00:06:18;;;;;;;5.53;5.13;;;15.90;99.90;;;;;;5072294;28;20530;-60
2021/06/03 00:08:46;;;;;;;6.03;5.47;;;15.80;99.90;;;;;;5072422;28;20692;-61
2021/06/03 00:11:13;;;;;;;7.20;6.25;;;15.90;99.90;;;;;;5072736;28;20201;-61
2021/06/03 00:13:43;;;;;;;6.70;6.10;;;15.90;99.90;;;;;;5072692;28;20207;-61
2021/06/03 00:16:13;;;;;;;7.72;6.00;;;15.80;99.90;;;;;;5072336;28;20204;-61
2021/06/03 00:18:41;;;;;;;7.85;6.05;;;15.80;99.90;;;;;;5072471;28;20203;-60
2021/06/03 00:21:09;;;;;;;6.80;6.03;;;15.80;99.90;;;;;;5072498;28;20283;-60
2021/06/03 00:23:38;;;;;;;6.68;6.07;;;15.90;99.90;;;;;;5072244;28;20200;-61
2021/06/03 00:26:06;;;;;;;6.53;5.80;;;15.80;99.90;;;;;;5072539;28;20200;-61
2021/06/03 00:28:33;;;;;;;6.70;6.10;;;15.80;99.90;;;;;;5072412;28;20218;-61
2021/06/03 00:31:01;;;;;;;7.22;6.63;;;15.80;99.90;;;;;;5072512;28;20209;-62
2021/06/03 00:33:28;;;;;;;6.53;5.93;;;15.80;99.90;;;;;;5076271;28;20216;-61
2021/06/03 00:35:56;;;;;;;6.95;6.32;;;15.70;99.90;;;;;;5075971;28;20236;-61
2021/06/03 00:38:23;;;;;;;7.00;6.40;;;15.70;99.90;;;;;;5083185;28;20206;-60
2021/06/03 00:40:52;;;;;;;6.97;6.38;;;15.70;99.90;;;;;;5096555;28;20214;-60
2021/06/03 00:43:19;;;;;;;7.35;5.68;;;15.60;99.90;;;;;;5096484;28;20291;-59
2021/06/03 00:45:46;;;;;;;6.70;6.10;;;15.70;99.90;;;;;;5096373;28;20196;-61
2021/06/03 00:48:14;;;;;;;7.00;6.30;;;15.60;99.90;;;;;;5096173;28;20267;-60
2021/06/03 00:50:45;;;;;;;6.55;5.95;;;15.60;99.90;;;;;;5095782;28;20203;-62
2021/06/03 00:53:14;;;;;;;6.93;6.32;;;15.60;99.90;;;;;;5096393;28;20258;-62
2021/06/03 00:55:44;;;;;;;7.57;6.18;;;15.70;99.90;;;;;;5096321;28;20204;-60
2021/06/03 00:58:13;;;;;;;7.07;6.38;;;15.70;99.90;;;;;;5095983;28;20645;-61
2021/06/03 01:00:40;;;;;;;6.35;5.75;;;15.70;99.90;;;;;;5096154;28;20291;-61
2021/06/03 01:03:10;;;;;;;6.97;6.28;;;15.60;99.90;;;;;;5095753;28;20687;-60
2021/06/03 01:05:40;;;;;;;6.55;5.97;;;15.60;99.90;;;;;;5095998;28;20202;-60
2021/06/03 01:08:12;;;;;;;6.75;6.13;;;15.60;99.90;;;;;;5095699;28;20212;-61
2021/06/03 01:10:47;;;;;;;7.03;6.38;;;15.60;99.90;;;;;;5095749;28;20716;-60
2021/06/03 01:13:25;;;;;;;6.75;6.00;;;15.60;99.90;;;;;;5095635;28;20188;-60
2021/06/03 01:15:54;;;;;;;6.70;6.17;;;15.60;99.90;;;;;;5095865;28;20185;-60
2021/06/03 01:18:22;;;;;;;7.00;6.30;;;15.60;99.90;;;;;;5095244;28;20825;-60
2021/06/03 01:20:50;;;;;;;7.20;6.13;;;15.60;99.90;;;;;;5095631;28;20204;-61
2021/06/03 01:23:23;;;;;;;7.30;6.60;;;15.50;99.90;;;;;;5095451;28;20739;-60
2021/06/03 01:25:53;;;;;;;6.65;5.88;;;15.50;99.90;;;;;;5095488;28;20188;-62
2021/06/03 01:28:21;;;;;;;7.03;6.43;;;15.50;99.90;;;;;;5095595;28;20220;-61
2021/06/03 01:30:51;;;;;;;6.28;5.68;;;15.50;99.90;;;;;;5095338;28;20200;-61
2021/06/03 01:33:22;;;;;;;6.93;6.33;;;15.40;99.90;;;;;;5095547;28;20192;-60
2021/06/03 01:35:53;;;;;;;6.80;6.10;;;15.50;99.90;;;;;;5095049;28;20203;-60
2021/06/03 01:38:24;;;;;;;6.85;5.50;;;15.40;99.90;;;;;;5088628;28;20193;-61
2021/06/03 01:40:54;;;;;;;7.00;6.40;;;15.30;99.90;;;;;;5075254;28;20185;-61
2021/06/03 01:43:23;;;;;;;7.03;6.35;;;15.30;99.90;;;;;;5074196;28;20205;-60
2021/06/03 01:45:51;;;;;;;7.00;6.33;;;15.30;99.90;;;;;;5074920;28;20209;-59
2021/06/03 01:48:21;;;;;;;6.83;6.23;;;15.30;99.90;;;;;;5074856;28;20587;-61
2021/06/03 01:50:50;;;;;;;6.15;5.65;;;15.30;99.90;;;;;;5074352;28;20295;-60
2021/06/03 01:53:20;;;;;;;6.57;6.07;;;15.30;99.90;;;;;;5074774;28;20276;-61
2021/06/03 01:55:48;;;;;;;6.70;6.10;;;15.30;99.90;;;;;;5074679;28;20841;-60
2021/06/03 01:58:17;;;;;;;7.03;6.33;;;15.30;99.90;;;;;;5074653;28;20207;-61
2021/06/03 02:00:44;;;;;;;7.00;6.30;;;15.20;99.90;;;;;;5074857;28;20203;-60
2021/06/03 02:03:12;;;;;;;6.70;6.13;;;15.30;99.90;;;;;;5074641;28;20549;-60
2021/06/03 02:05:40;;;;;;;7.43;6.10;;;15.20;99.90;;;;;;5074437;28;20654;-60
2021/06/03 02:08:07;;;;;;;7.30;6.00;;;15.20;99.90;;;;;;5074381;28;20220;-62
2021/06/03 02:10:35;;;;;;;6.67;6.07;;;15.20;99.90;;;;;;5074748;28;20303;-61
2021/06/03 02:13:06;;;;;;;7.00;6.30;;;15.20;99.90;;;;;;5074559;28;20200;-63
2021/06/03 02:15:41;;;;;;;7.07;6.05;;;15.20;99.90;;;;;;5074256;28;20601;-62
2021/06/03 02:18:13;;;;;;;6.68;6.07;;;15.10;99.90;;;;;;5074396;28;20266;-61
2021/06/03 02:20:42;;;;;;;6.77;6.17;;;15.10;99.90;;;;;;5074016;28;20322;-60
2021/06/03 02:23:11;;;;;;;6.83;6.23;;;15.10;99.90;;;;;;5074362;28;20205;-60
2021/06/03 02:25:39;;;;;;;7.23;6.53;;;15.10;99.90;;;;;;5074298;28;20207;-61
2021/06/03 02:28:06;;;;;;;6.93;6.32;;;15.10;99.90;;;;;;5073889;28;20229;-61
2021/06/03 02:30:35;;;;;;;7.07;6.43;;;15.10;99.90;;;;;;5074186;28;20197;-61
2021/06/03 02:33:04;;;;;;;7.00;6.40;;;15.00;99.90;;;;;;5073893;28;20288;-60
2021/06/03 02:35:32;;;;;;;6.60;5.93;;;15.10;99.90;;;;;;5074001;28;20291;-60
2021/06/03 02:38:00;;;;;;;7.23;6.60;;;15.00;99.90;;;;;;5077601;28;20648;-61
2021/06/03 02:40:30;;;;;;;6.87;6.33;;;15.00;99.90;;;;;;5094224;28;20200;-61
2021/06/03 02:42:58;;;;;;;7.63;6.73;;;15.00;99.90;;;;;;5094198;28;20196;-61
2021/06/03 02:45:27;;;;;;;7.33;6.43;;;14.90;99.90;;;;;;5093787;28;20640;-61
2021/06/03 02:47:57;;;;;;;7.30;6.70;;;14.90;99.90;;;;;;5093968;28;20206;-60
2021/06/03 02:50:26;;;;;;;7.07;6.37;;;15.00;99.90;;;;;;5093722;28;20206;-60
2021/06/03 02:52:54;;;;;;;6.90;6.30;;;14.90;99.90;;;;;;5093663;28;20746;-60
2021/06/03 02:55:24;;;;;;;7.70;7.00;;;15.00;99.90;;;;;;5093069;28;20200;-61
2021/06/03 02:57:52;;;;;;;7.43;6.72;;;14.90;99.90;;;;;;5093790;28;20687;-61
2021/06/03 03:00:22;;;;;;;7.67;6.53;;;14.80;99.90;;;;;;5093664;28;20253;-60
2021/06/03 03:02:51;;;;;;;7.33;6.63;;;14.70;99.90;;;;;;5093702;28;20218;-60
2021/06/03 03:05:20;;;;;;;8.53;6.70;;;14.80;99.90;;;;;;5093676;28;20805;-60
2021/06/03 03:07:48;;;;;;;7.27;6.57;;;14.70;99.90;;;;;;5093807;28;20295;-60
2021/06/03 03:10:19;;;;;;;7.67;6.60;;;14.70;99.90;;;;;;5093719;28;20213;-61
2021/06/03 03:12:47;;;;;;;7.63;6.87;;;14.70;99.90;;;;;;5093801;28;20184;-60
2021/06/03 03:15:16;;;;;;;6.70;6.10;;;14.70;99.90;;;;;;5093259;28;20636;-61
2021/06/03 03:17:44;;;;;;;7.50;6.80;;;14.70;99.90;;;;;;5093129;28;20210;-60
2021/06/03 03:20:13;;;;;;;7.72;6.90;;;14.70;99.90;;;;;;5093361;28;20214;-61
2021/06/03 03:22:51;;;;;;;7.27;6.43;;;14.70;99.90;;;;;;5093528;28;20195;-61
2021/06/03 03:25:20;;;;;;;8.40;7.37;;;14.70;99.90;;;;;;5093096;28;20550;-60
2021/06/03 03:27:49;;;;;;;6.80;6.20;;;14.70;99.90;;;;;;5093158;28;20709;-60
2021/06/03 03:30:19;;;;;;;7.57;6.87;;;14.80;99.90;;;;;;5093278;28;20212;-60
2021/06/03 03:32:47;;;;;;;7.38;6.68;;;14.70;99.90;;;;;;5093138;28;20204;-60
2021/06/03 03:35:15;;;;;;;7.00;6.40;;;14.80;99.90;;;;;;5093177;28;20294;-61
2021/06/03 03:37:44;;;;;;;7.28;6.57;;;14.80;99.90;;;;;;5091715;28;20337;-61
2021/06/03 03:40:15;;;;;;;7.40;6.70;;;14.90;99.90;;;;;;5073015;28;20196;-60
2021/06/03 03:42:43;;;;;;;6.60;6.00;;;14.90;99.90;;;;;;5073031;28;20185;-60
2021/06/03 03:45:13;;;;;;;7.63;6.93;;;14.90;99.90;;;;;;5072672;28;20686;-61
2021/06/03 03:47:40;;;;;;;7.15;6.45;;;14.90;99.90;;;;;;5072451;28;20200;-61
2021/06/03 03:50:11;;;;;;;7.50;6.80;;;14.90;99.90;;;;;;5072340;28;20229;-60
2021/06/03 03:52:39;;;;;;;7.60;6.90;;;14.90;99.90;;;;;;5072582;28;20232;-61
2021/06/03 03:55:08;;;;;;;7.65;6.68;;;14.90;99.90;;;;;;5072727;28;20204;-61
2021/06/03 03:57:37;;;;;;;7.87;6.70;;;15.00;99.90;;;;;;5072505;28;20630;-60
2021/06/03 04:00:07;;;;;;;7.33;6.50;;;15.10;99.90;;;;;;5072782;28;20193;-61
2021/06/03 04:02:35;;;;;;;7.15;6.45;;;15.10;99.90;;;;;;5072217;28;20240;-61
2021/06/03 04:05:03;;;;;;;8.35;7.45;;;15.10;99.90;;;;;;5072170;28;20307;-60
2021/06/03 04:07:31;;;;;;;7.40;6.70;;;15.10;99.90;;;;;;5077322;28;20240;-61
2021/06/03 04:09:59;;;;;;;7.97;7.10;;;15.20;99.90;;;;;;5078933;28;20222;-61
2021/06/03 04:12:26;;;;;;;7.90;7.20;;;15.20;99.90;;;;;;5079292;28;20287;-62
2021/06/03 04:14:55;;;;;;;8.27;6.95;;;15.40;99.90;;;;;;5079191;28;20200;-60
2021/06/03 04:17:23;;;;;;;9.32;6.43;;;15.50;99.90;;;;;;5079160;28;20203;-61
2021/06/03 04:19:50;;;;;;;7.97;6.40;;;15.60;99.90;;;;;;5078764;28;20236;-61
2021/06/03 04:22:18;;;;;;;7.28;6.57;;;15.60;99.90;;;;;;5079362;28;20568;-61
2021/06/03 04:24:45;;;;;;;7.50;6.80;;;15.70;99.90;;;;;;5079384;28;20200;-61
2021/06/03 04:27:12;;;;;;;8.93;6.37;;;15.70;99.90;;;;;;5079320;28;20580;-61
2021/06/03 04:29:40;;;;;;;7.63;6.82;;;15.70;99.90;;;;;;5079204;28;20315;-61
2021/06/03 04:32:09;;;;;;;9.13;6.25;;;15.70;99.90;;;;;;5078882;28;20719;-61
2021/06/03 04:34:37;;;;;;;7.25;6.47;;;15.70;99.90;;;;;;5079108;28;20291;-61
2021/06/03 04:37:05;;;;;;;7.97;6.65;;;15.80;99.90;;;;;;5078795;28;20204;-61
2021/06/03 04:39:33;;;;;;;8.60;7.00;;;15.80;99.90;;;;;;5095886;28;20278;-60
2021/06/03 04:42:00;;;;;;;8.18;6.75;;;15.90;99.90;;;;;;5099180;28;20207;-61
2021/06/03 04:44:27;;;;;;;7.22;6.63;;;16.00;99.90;;;;;;5099379;28;20321;-61
2021/06/03 04:46:55;;;;;;;7.80;6.93;;;16.10;99.90;;;;;;5099055;28;20290;-60
2021/06/03 04:49:24;;;;;;;7.15;6.38;;;16.20;99.90;;;;;;5098906;28;20224;-60
2021/06/03 04:51:51;;;;;;;7.32;6.70;;;16.40;99.90;;;;;;5098648;28;20238;-60
2021/06/03 04:54:18;;;;;;;7.30;6.50;;;16.90;99.90;;;;;;5099178;28;20225;-61
2021/06/03 04:56:46;;;;;;;6.30;5.70;;;18.00;99.90;;;;;;5099252;28;20200;-61
2021/06/03 04:59:13;;;;;;;6.75;5.93;;;19.70;99.90;;;;;;5098883;28;20203;-60
2021/06/03 05:01:41;;;;;;;9.27;5.90;;;21.40;99.90;;;;;;5098740;28;20199;-61
2021/06/03 05:04:09;;;;;;;6.13;5.57;;;22.80;99.90;;;;;;5098354;28;20203;-61
2021/06/03 05:06:37;;;;;;;5.43;4.93;;;24.30;99.90;;;;;;5098502;28;20207;-61
2021/06/03 05:09:05;;;;;;;5.63;5.22;;;;;;;;;;5098852;28;20643;-63
2021/06/03 05:11:33;;;;;;;5.95;5.28;;;;;;;;;;5099386;28;20221;-62
2021/06/03 05:14:01;;;;;;;5.65;5.10;;;;;;;;;;5099393;28;20203;-62
2021/06/03 05:16:29;;;;;;;6.80;4.90;;;;;;;;;;5098941;28;20208;-61
2021/06/03 05:18:56;;;;;;;6.20;5.07;;;;;;;;;;5095842;28;20676;-61
2021/06/03 05:21:24;;;;;;;5.88;5.30;;;;;;;;;;5095932;28;20231;-62
2021/06/03 05:23:54;;;;;;;5.55;5.05;;;;;;;;;;5095899;28;20244;-60
2021/06/03 05:26:22;;;;;;;6.00;5.00;;;;;;;;;;5078140;28;20201;-62
2021/06/03 05:28:50;;;;;;;6.20;5.60;;;;;;;;;;5074970;28;20678;-61
2021/06/03 05:31:17;;;;;;;6.88;5.13;;;;;;;;;;5074503;28;20197;-61
2021/06/03 05:33:45;;;;;;;6.15;5.55;;;;;;;;;;5074723;28;20276;-61
2021/06/03 05:36:13;;;;;;;7.18;5.63;;;;;;;;;;5074014;28;20201;-61
2021/06/03 05:38:40;;;;;;;6.65;5.70;;;;;;;;;;5084440;28;20554;-61
2021/06/03 05:41:09;;;;;;;7.68;5.47;;;;;;;;;;5075742;28;20293;-62
2021/06/03 05:43:37;;;;;;;6.38;5.65;;;25.90;99.90;;;;;;5074604;28;20207;-62
2021/06/03 05:46:04;;;;;;;8.00;5.68;;;24.80;99.90;;;;;;5074943;28;20291;-61
2021/06/03 05:48:32;;;;;;;6.15;5.55;;;23.90;99.90;;;;;;5074881;28;20239;-60
2021/06/03 05:50:59;;;;;;;7.50;5.65;;;23.10;99.90;;;;;;5074500;28;20235;-62
2021/06/03 05:53:27;;;;;;;7.10;5.43;;;22.50;99.90;;;;;;5074938;28;20549;-60
2021/06/03 05:55:54;;;;;;;8.20;5.57;;;22.20;99.90;;;;;;5074900;28;20553;-62
2021/06/03 05:58:23;;;;;;;6.07;5.57;;;21.80;99.90;;;;;;5074566;28;20203;-61
2021/06/03 06:00:50;;;;;;;7.57;6.13;;;21.60;99.90;;;;;;5074775;28;20290;-61
2021/06/03 06:03:19;;;;;;;9.93;6.38;;;21.50;99.90;;;;;;5074565;28;20212;-60
2021/06/03 06:06:08;;;;;;;7.60;5.55;;;21.40;99.90;;;;;;5074410;28;20205;-61
2021/06/03 06:08:35;;;;;;;5.88;5.28;;;21.30;99.90;;;;;;5078494;28;20188;-61
2021/06/03 06:11:04;;;;;;;7.50;5.85;;;21.40;99.90;;;;;;5091888;28;20318;-61
2021/06/03 06:13:34;;;;;;;6.15;5.55;;;21.30;99.90;;;;;;5091814;28;20204;-62
2021/06/03 06:16:01;;;;;;;7.65;5.85;;;21.50;99.90;;;;;;5091407;28;20249;-62
2021/06/03 06:18:29;;;;;;;8.23;6.68;;;21.60;99.90;;;;;;5091504;28;20291;-61
2021/06/03 06:20:57;;;;;;;8.15;5.30;;;21.70;99.90;;;;;;5072506;28;20681;-63
2021/06/03 06:23:24;;;;;;;5.82;5.32;;;21.70;99.90;;;;;;5071364;28;20307;-63
2021/06/03 06:25:51;;;;;;;5.65;5.03;;;21.70;99.90;;;;;;5071557;28;20239;-62
2021/06/03 06:28:19;;;;;;;5.80;5.30;;;21.80;99.90;;;;;;5070831;28;20203;-62
2021/06/03 06:30:48;;;;;;;7.47;5.80;;;21.90;99.90;;;;;;5068519;28;20231;-62
2021/06/03 06:33:16;;;;;;;5.65;5.10;;;21.90;99.90;;;;;;5070558;28;20204;-62
2021/06/03 06:35:47;;;;;;;5.30;4.70;;;21.90;99.90;;;;;;5071019;28;20633;-63
2021/06/03 06:38:15;;;;;;;5.95;5.20;;;22.00;99.90;;;;;;5076870;28;20196;-63
2021/06/03 06:40:42;;;;;;;7.40;5.60;;;22.10;99.90;;;;;;5091300;28;20203;-63
2021/06/03 06:43:10;;;;;;;5.07;4.57;;;22.10;99.90;;;;;;5091126;28;20204;-64
2021/06/03 06:45:38;;;;;;;5.97;4.97;;;22.10;99.90;;;;;;5090957;28;20292;-62
2021/06/03 06:48:09;;;;;;;6.47;4.72;;;22.20;99.90;;;;;;5091108;28;20299;-63
2021/06/03 06:50:38;;;;;;;6.25;4.95;;;22.30;99.90;;;;;;5091020;28;20532;-65
2021/06/03 06:53:07;;;;;;;6.07;4.85;;;22.30;99.90;;;;;;5090760;28;20765;-62
2021/06/03 06:55:35;;;;;;;6.70;4.70;;;22.40;99.90;;;;;;5090834;28;20298;-62
2021/06/03 06:58:03;;;;;;;5.80;5.18;;;22.40;99.90;;;;;;5090804;28;20196;-61
2021/06/03 07:00:33;;;;;;;6.50;4.80;;;22.40;99.90;;;;;;5090812;28;20192;-61
2021/06/03 07:03:01;;;;;;;6.20;4.88;;;22.40;99.90;;;;;;5090436;28;20697;-62
2021/06/03 07:05:30;;;;;;;4.78;4.18;;;22.40;99.90;;;;;;5090751;28;20321;-63
2021/06/03 07:07:57;;;;;;;4.70;4.25;;;22.50;99.90;;;;;;5090583;28;20200;-61
2021/06/03 07:10:25;;;;;;;5.50;4.90;;;22.60;99.90;;;;;;5090581;28;20223;-62
2021/06/03 07:12:53;;;;;;;6.82;4.65;;;22.70;99.90;;;;;;5090268;28;20291;-69
2021/06/03 07:15:20;;;;;;;5.57;4.78;;;22.60;99.90;;;;;;5090440;28;20323;-67
2021/06/03 07:17:53;;;;;;;5.03;4.53;;;22.60;99.90;;;;;;5090023;28;20195;-63
2021/06/03 07:20:22;;;;;;;5.63;4.75;;;22.60;99.90;;;;;;5090444;28;20185;-62
2021/06/03 07:22:53;;;;;;;5.03;4.60;;;22.60;99.90;;;;;;5090101;28;20653;-62
2021/06/03 07:25:24;;;;;;;5.00;4.50;;;22.70;99.90;;;;;;5090311;28;20223;-62
2021/06/03 07:27:53;;;;;;;6.40;4.40;;;22.80;99.90;;;;;;5090135;28;20287;-63
2021/06/03 07:30:23;;;;;;;4.78;3.92;;;22.80;99.90;;;;;;5089690;28;20255;-63
2021/06/03 07:32:51;;;;;;;4.55;4.15;;;22.70;99.90;;;;;;5089455;28;20210;-62
2021/06/03 07:35:20;;;;;;;5.38;4.50;;;22.70;99.90;;;;;;5089818;28;20639;-61
2021/06/03 07:37:49;;;;;;;5.72;4.60;;;22.70;99.90;;;;;;5087524;28;20202;-61
2021/06/03 07:40:21;;;;;;;6.20;4.22;;;22.70;99.90;;;;;;5069482;28;20797;-61
2021/06/03 07:42:51;;;;;;;4.85;4.28;;;22.70;99.90;;;;;;5069950;28;20208;-63
2021/06/03 07:45:22;;;;;;;4.22;3.67;;;22.80;99.90;;;;;;5072551;28;20200;-62
2021/06/03 07:47:52;;;;;;;4.57;3.95;;;22.80;99.90;;;;;;5072518;28;20215;-63
2021/06/03 07:50:20;;;;;;;5.70;3.78;;;22.80;99.90;;;;;;5072956;28;20232;-63
2021/06/03 07:52:47;;;;;;;5.75;5.15;;;22.90;99.90;;;;;;5071698;28;20235;-62
2021/06/03 07:55:17;;;;;;;4.53;4.07;;;22.90;99.90;;;;;;5072190;28;20680;-62
2021/06/03 07:57:48;;;;;;;8.93;4.40;;;22.90;99.90;;;;;;5072868;28;20205;-63
2021/06/03 08:00:19;;;;;;;5.32;4.03;;;22.90;99.90;;;;;;5072828;28;20185;-64
2021/06/03 08:02:48;;;;;;;4.55;4.00;;;22.90;99.90;;;;;;5072587;28;20204;-63
2021/06/03 08:05:17;;;;;;;5.28;4.28;;;23.10;99.90;;;;;;5072725;28;20200;-62
2021/06/03 08:07:45;;;;;;;3.95;3.50;;;23.10;99.90;;;;;;5072458;28;20247;-64
2021/06/03 08:10:14;;;;;;;3.88;3.58;;;23.20;99.90;;;;;;5072599;28;20217;-62
2021/06/03 08:12:42;;;;;;;6.72;4.00;;;23.20;99.90;;;;;;5072753;28;20280;-62
2021/06/03 08:15:13;;;;;;;4.43;3.63;;;23.30;99.90;;;;;;5072810;28;20197;-64
2021/06/03 08:17:41;;;;;;;5.35;4.18;;;23.30;99.90;;;;;;5072266;28;20551;-62
2021/06/03 08:20:12;;;;;;;4.47;3.80;;;23.40;99.90;;;;;;5072208;28;20641;-63
2021/06/03 08:22:41;;;;;;;5.25;3.75;;;23.40;99.90;;;;;;5072395;28;20287;-62
2021/06/03 08:25:10;;;;;;;4.78;3.63;;;23.50;99.90;;;;;;5070901;28;20204;-61
2021/06/03 08:27:37;;;;;;;4.38;3.78;;;23.60;99.90;;;;;;5069321;28;20291;-61
2021/06/03 08:30:08;;;;;;;5.03;3.55;;;23.60;99.90;;;;;;5088127;28;20829;-60
2021/06/03 08:32:41;;;;;;;4.22;3.20;;;23.60;99.90;;;;;;5089103;28;20184;-61
2021/06/03 08:35:14;;;;;;;5.68;3.22;;;23.80;99.90;;;;;;5089395;28;20299;-61
2021/06/03 08:37:42;;;;;;;4.22;3.50;;;23.80;99.90;;;;;;5088203;28;20275;-59
2021/06/03 08:40:12;;;;;;;5.18;3.47;;;23.90;99.90;;;;;;5069256;28;20219;-60
2021/06/03 08:42:40;;;;;;;4.35;3.00;;;24.00;99.90;;;;;;5068617;28;20240;-62
2021/06/03 08:45:09;;;;;;;7.60;3.67;;;24.10;99.90;;;;;;5069486;28;20211;-64
2021/06/03 08:47:36;;;;;;;4.57;3.30;;;24.20;99.90;;;;;;5069075;28;20288;-66
2021/06/03 08:50:06;;;;;;;4.68;3.35;;;24.20;99.90;;;;;;5068826;28;20220;-63
2021/06/03 08:52:34;;;;;;;6.85;3.65;;;24.30;99.90;;;;;;5067992;28;20228;-62
2021/06/03 08:55:05;;;;;;;7.53;4.00;;;24.40;99.90;;;;;;5071656;28;20653;-61
2021/06/03 08:57:32;;;;;;;4.00;3.40;;;24.60;99.90;;;;;;5073094;28;20284;-62
2021/06/03 09:00:01;;;;;;;3.80;3.50;;;24.60;99.90;;;;;;5072927;28;20204;-64
2021/06/03 09:02:31;;;;;;;3.83;3.53;;;24.70;99.90;;;;;;5072871;28;20191;-63
2021/06/03 09:04:59;;;;;;;4.30;3.30;;;24.70;99.90;;;;;;5072710;28;20228;-63
2021/06/03 09:07:32;;;;;;;3.78;3.17;;;24.80;99.90;;;;;;5073019;28;20200;-64
2021/06/03 09:10:31;;;;;;;5.50;3.53;;;24.80;99.90;;;;;;5072858;28;20192;-62
2021/06/03 09:13:13;;;;;;;3.75;3.45;;;24.80;99.90;;;;;;5072604;28;20674;-67
2021/06/03 09:15:42;;;;;;;5.53;3.25;;;24.90;99.90;;;;;;5072334;28;20181;-68
2021/06/03 09:18:11;;;;;;;3.42;3.13;;;24.90;99.90;;;;;;5072279;28;20207;-64
2021/06/03 09:20:42;;;;;;;4.05;3.58;;;25.00;99.90;;;;;;5072346;28;20283;-64
2021/06/03 09:23:25;;;;;;;3.40;3.10;;;25.00;99.90;;;;;;5072429;28;20185;-61
2021/06/03 09:25:53;;;;;;;5.40;3.60;;;25.10;99.90;;;;;;5071804;28;20838;-62
2021/06/03 09:28:27;;;;;;;5.15;3.35;;;25.30;99.90;;;;;;5072255;28;20204;-63
2021/06/03 09:31:04;;;;;;;3.75;3.45;;;25.30;99.90;;;;;;5072186;28;20555;-62
2021/06/03 09:33:40;;;;;;;4.53;3.40;;;25.30;99.90;;;;;;5071957;28;20207;-62
2021/06/03 09:36:09;;;;;;;3.63;3.33;;;25.10;99.90;;;;;;5071950;28;20187;-62
2021/06/03 09:38:51;;;;;;;3.70;3.40;;;25.30;99.90;;;;;;5074847;28;20208;-64
2021/06/03 09:41:19;;;;;;;4.10;2.90;;;25.40;99.90;;;;;;5068985;28;20189;-64
2021/06/03 09:43:47;;;;;;;3.45;3.10;;;25.50;99.90;;;;;;5071851;28;20205;-65
2021/06/03 09:46:16;;;;;;;3.15;2.70;;;25.60;99.50;;;;;;5071533;28;20593;-64
2021/06/03 09:48:45;;;;;;;3.30;3.00;;;25.80;99.80;;;;;;5071316;28;20213;-63
2021/06/03 09:51:21;;;;;;;5.18;3.40;;;25.90;98.90;;;;;;5071460;28;20239;-64
2021/06/03 09:53:56;;;;;;;3.83;3.42;;;25.80;99.90;;;;;;5071741;28;20187;-63
2021/06/03 09:56:25;;;;;;;3.30;3.00;;;25.80;99.90;;;;;;5072062;28;20180;-63
2021/06/03 09:58:53;;;;;;;3.20;3.00;;;25.90;99.90;;;;;;5071176;28;20299;-62
2021/06/03 10:01:55;;;;;;;4.13;3.30;;;25.80;99.90;;;;;;5071608;28;20205;-63
2021/06/03 10:04:26;;;;;;;3.67;3.08;;;25.90;99.70;;;;;;5053621;28;20193;-62
2021/06/03 10:06:56;;;;;;;3.58;3.28;;;25.80;99.60;;;;;;5070775;28;20291;-63
2021/06/03 10:09:49;;;;;;;3.30;3.00;;;25.90;99.20;;;;;;5071457;28;20185;-64
2021/06/03 10:12:29;;;;;;;3.95;3.30;;;25.80;99.90;;;;;;5071402;28;20212;-63
2021/06/03 10:14:58;;;;;;;4.05;3.03;;;25.70;99.30;;;;;;5072130;28;20287;-63
2021/06/03 10:17:27;;;;;;;5.82;3.17;;;25.60;98.30;;;;;;5074420;28;20213;-63
2021/06/03 10:19:57;;;;;;;4.07;3.00;;;25.60;99.10;;;;;;5074354;28;20204;-61
2021/06/03 10:22:26;;;;;;;6.03;3.10;;;25.70;97.70;;;;;;5074354;28;20191;-61
2021/06/03 10:25:06;;;;;;;5.40;3.50;;;25.90;97.90;;;;;;5074228;28;20632;-61
2021/06/03 10:27:35;;;;;;;4.03;3.20;;;26.10;98.20;;;;;;5074212;28;20272;-61
2021/06/03 10:30:08;;;;;;;4.38;3.20;;;26.40;97.90;;;;;;5073978;28;20564;-63
2021/06/03 10:32:36;;;;;;;4.63;3.20;;;26.60;97.60;;;;;;5073580;28;20205;-62
2021/06/03 10:35:08;;;;;;;4.13;3.38;;;26.70;97.80;;;;;;5073797;28;20211;-62
2021/06/03 10:37:37;;;;;;;3.20;3.00;;;26.80;97.90;;;;;;5074264;28;20621;-61
2021/06/03 10:40:08;;;;;;;3.65;3.00;;;26.80;97.10;;;;;;5094391;28;20576;-61
2021/06/03 10:42:36;;;;;;;3.20;2.90;;;26.90;97.00;;;;;;5094223;28;20188;-61
2021/06/03 10:45:06;;;;;;;4.35;3.20;;;26.90;97.40;;;;;;5093939;28;20299;-61
2021/06/03 10:47:34;;;;;;;3.33;2.95;;;27.00;97.20;;;;;;5094087;28;20290;-61
2021/06/03 10:50:03;;;;;;;3.30;3.00;;;27.10;96.50;;;;;;5093971;28;20231;-61
2021/06/03 10:52:32;;;;;;;6.43;3.10;;;27.30;96.40;;;;;;5093460;28;20688;-60
2021/06/03 10:55:01;;;;;;;3.60;2.97;;;27.50;97.30;;;;;;5093809;28;20204;-61
2021/06/03 10:57:53;;;;;;;4.28;3.35;;;27.60;95.70;;;;;;5085053;28;20204;-63
2021/06/03 11:00:30;;;;;;;3.30;3.03;;;27.70;96.70;;;;;;5089239;28;20765;-63
2021/06/03 11:02:59;;;;;;;4.15;3.35;;;27.70;95.90;;;;;;5090648;28;20184;-63
2021/06/03 11:05:29;;;;;;;3.42;2.92;;;27.90;95.70;;;;;;5090268;28;20214;-62
2021/06/03 11:08:17;;;;;;;3.22;2.97;;;28.10;97.30;;;;;;5090811;28;20275;-62
2021/06/03 11:10:44;;;;;;;4.03;3.13;;;28.10;96.80;;;;;;5090316;28;20204;-63
2021/06/03 11:13:15;;;;;;;3.80;3.30;;;28.20;95.90;;;;;;5090670;28;20200;-61
2021/06/03 11:16:11;;;;;;;3.60;3.30;;;28.40;96.10;;;;;;5089738;28;20679;-61
2021/06/03 11:19:03;;;;;;;5.68;3.13;;;28.60;96.30;;;;;;5090472;28;20184;-61
2021/06/03 11:21:50;;;;;;;3.75;3.10;;;28.80;96.80;;;;;;5090004;28;20203;-62
2021/06/03 11:24:39;;;;;;;3.35;3.05;;;28.80;95.40;;;;;;5090410;28;20200;-62
2021/06/03 11:27:08;;;;;;;3.92;3.03;;;28.80;95.90;;;;;;5090446;28;20295;-62
2021/06/03 11:29:41;;;;;;;3.72;3.30;;;28.80;94.50;;;;;;5090304;28;20299;-62
2021/06/03 11:32:17;;;;;;;3.83;3.08;;;28.70;95.40;;;;;;5090239;28;20210;-61
2021/06/03 11:34:50;;;;;;;4.18;3.30;;;28.80;95.50;;;;;;5089974;28;20275;-61
2021/06/03 11:37:19;;;;;;;6.07;3.30;;;28.90;95.40;;;;;;5090390;28;20184;-62
2021/06/03 11:39:49;;;;;;;4.10;3.20;;;29.00;95.50;;;;;;5071350;28;20200;-61
2021/06/03 11:42:37;;;;;;;4.50;3.53;;;29.00;95.60;;;;;;5069760;28;20695;-61
2021/06/03 11:45:28;;;;;;;3.75;3.10;;;29.10;95.30;;;;;;5070134;28;20189;-62
2021/06/03 11:48:10;;;;;;;4.25;3.72;;;29.20;94.60;;;;;;5069088;28;20316;-61
2021/06/03 11:51:00;;;;;;;3.88;3.28;;;29.20;95.60;;;;;;5069696;28;20184;-62
2021/06/03 11:53:30;;;;;;;3.13;2.83;;;29.00;95.20;;;;;;5069481;28;20216;-62
2021/06/03 11:56:08;;;;;;;3.13;2.90;;;29.10;94.80;;;;;;5069616;28;20651;-62
2021/06/03 11:58:54;;;;;;;5.85;3.60;;;28.90;94.40;;;;;;5069639;28;20208;-62
2021/06/03 12:01:38;;;;;;;3.38;2.92;;;28.90;95.00;;;;;;5069244;28;20639;-62
2021/06/03 12:04:19;;;;;;;4.63;3.45;;;28.80;94.40;;;;;;5068780;28;20276;-62
2021/06/03 12:06:49;;;;;;;3.30;3.00;;;28.90;94.60;;;;;;5069609;28;20184;-62
2021/06/03 12:09:37;;;;;;;3.35;3.05;;;29.00;94.50;;;;;;5069634;28;20283;-62
2021/06/03 12:12:06;;;;;;;3.50;3.20;;;29.00;94.20;;;;;;5069514;28;20205;-62
2021/06/03 12:14:42;;;;;;;3.25;3.00;;;29.00;94.20;;;;;;5069194;28;20201;-61
2021/06/03 12:17:14;;;;;;;3.63;3.22;;;29.00;94.60;;;;;;5069255;28;20185;-63
2021/06/03 12:19:43;;;;;;;3.95;3.58;;;28.90;95.00;;;;;;5068912;28;20691;-61
2021/06/03 12:22:13;;;;;;;3.50;3.20;;;28.90;94.30;;;;;;5069340;28;20734;-62
2021/06/03 12:24:43;;;;;;;3.30;3.00;;;28.80;94.60;;;;;;5069032;28;20235;-62
2021/06/03 12:27:21;;;;;;;5.38;3.50;;;28.90;93.80;;;;;;5069338;28;20775;-61
2021/06/03 12:29:49;;;;;;;4.38;3.40;;;28.90;93.80;;;;;;5073387;28;20192;-62
2021/06/03 12:32:18;;;;;;;3.63;3.28;;;28.90;94.20;;;;;;5073231;28;20311;-62
2021/06/03 12:34:46;;;;;;;3.33;3.03;;;28.90;94.20;;;;;;5073144;28;20296;-62
2021/06/03 12:37:27;;;;;;;3.47;3.13;;;28.90;94.50;;;;;;5072726;28;20629;-62
2021/06/03 12:39:55;;;;;;;6.20;3.50;;;29.10;94.40;;;;;;5092732;28;20643;-62
2021/06/03 12:42:25;;;;;;;3.25;3.05;;;29.20;94.30;;;;;;5093154;28;20521;-60
2021/06/03 12:44:58;;;;;;;3.65;3.28;;;29.30;93.50;;;;;;5093472;28;20299;-62
2021/06/03 12:47:30;;;;;;;4.47;3.40;;;29.50;93.40;;;;;;5093045;28;20642;-62
2021/06/03 12:50:16;;;;;;;3.53;3.22;;;29.50;93.50;;;;;;5092674;28;20553;-60
2021/06/03 12:52:47;;;;;;;4.00;3.50;;;29.40;94.00;;;;;;5092613;28;20230;-62
2021/06/03 12:55:18;;;;;;;3.33;3.03;;;29.30;93.30;;;;;;5092992;28;20181;-62
2021/06/03 12:57:46;;;;;;;3.60;3.30;;;29.30;92.90;;;;;;5092987;28;20295;-62
2021/06/03 13:00:16;;;;;;;3.67;3.22;;;29.40;93.80;;;;;;5092673;28;20207;-63
2021/06/03 13:02:47;;;;;;;3.67;3.38;;;29.40;93.00;;;;;;5092868;28;20250;-62
2021/06/03 13:05:17;;;;;;;3.65;3.30;;;29.50;92.80;;;;;;5092687;28;20212;-61
2021/06/03 13:07:45;;;;;;;3.47;3.17;;;29.50;91.60;;;;;;5092523;28;20226;-60